Time;durP1;ratioP1;P1;durP2;ratioP2;P2;SDS_P1;SDS_P2;PMS_P1;PMS_P2;Temp;Humidity;BMP_temperature;BMP_pressure;BME280_temperature;BME280_humidity;BME280_pressure;Samples;Min_cycle;Max_cycle;Signal;HPM_P1;HPM_P2
2022/08/11 00:01:13;;;;;;;1.55;1.00;;;18.30;99.60;;;;;;5085804;28;20518;-73
2022/08/11 00:03:55;;;;;;;2.13;1.10;;;18.30;99.60;;;;;;5099805;28;20036;-73
2022/08/11 00:06:30;;;;;;;1.90;0.90;;;18.20;99.90;;;;;;5080539;28;20028;-73
2022/08/11 00:08:56;;;;;;;;;;;18.20;99.90;;;;;;5098777;28;20042;-73
2022/08/11 00:11:42;;;;;;;3.55;1.42;;;18.20;99.90;;;;;;5090414;28;19923;-73
2022/08/11 00:14:28;;;;;;;1.52;0.98;;;18.20;99.90;;;;;;5096514;28;20036;-73
2022/08/11 00:16:58;;;;;;;1.90;0.85;;;18.10;99.90;;;;;;5088198;28;20040;-72
2022/08/11 00:19:34;;;;;;;2.30;1.20;;;18.10;99.90;;;;;;5085377;28;20077;-73
2022/08/11 00:22:02;;;;;;;3.15;1.35;;;18.10;99.90;;;;;;5086424;28;20488;-73
2022/08/11 00:24:38;;;;;;;1.98;1.08;;;18.10;99.90;;;;;;5075155;28;20100;-73
2022/08/11 00:27:04;;;;;;;4.85;1.42;;;18.00;99.90;;;;;;5093597;28;20040;-73
2022/08/11 00:29:31;;;;;;;2.38;1.10;;;18.00;99.90;;;;;;5091323;28;20048;-73
2022/08/11 00:32:00;;;;;;;2.58;1.13;;;18.00;99.90;;;;;;5086475;28;20112;-73
2022/08/11 00:34:35;;;;;;;2.40;1.08;;;17.90;99.90;;;;;;5076568;28;20086;-73
2022/08/11 00:37:06;;;;;;;3.38;1.20;;;17.90;99.90;;;;;;5092530;28;20032;-73
2022/08/11 00:39:43;;;;;;;1.88;0.88;;;17.90;99.90;;;;;;5095791;28;20653;-73
2022/08/11 00:42:41;;;;;;;2.10;0.98;;;17.90;99.90;;;;;;5078321;28;20051;-73
2022/08/11 00:45:25;;;;;;;2.55;1.20;;;17.90;99.90;;;;;;5088314;28;20126;-73
2022/08/11 00:48:22;;;;;;;2.58;1.20;;;17.80;99.90;;;;;;5096699;28;20043;-73
2022/08/11 00:51:12;;;;;;;2.17;1.10;;;17.80;99.90;;;;;;5089912;28;20047;-73
2022/08/11 00:53:51;;;;;;;1.65;0.82;;;17.70;99.90;;;;;;5094707;28;20048;-73
2022/08/11 00:56:26;;;;;;;1.83;1.00;;;17.70;99.90;;;;;;5100569;28;20524;-73
2022/08/11 00:59:13;;;;;;;4.50;1.38;;;17.70;99.90;;;;;;5082550;28;20047;-73
2022/08/11 01:01:55;;;;;;;2.75;1.35;;;17.70;99.90;;;;;;5096922;28;20546;-73
2022/08/11 01:05:05;;;;;;;3.55;1.15;;;17.70;99.90;;;;;;5082831;28;20040;-73
2022/08/11 01:07:37;;;;;;;3.95;2.00;;;17.60;99.90;;;;;;5074390;28;20036;-73
2022/08/11 01:10:39;;;;;;;2.38;1.00;;;17.60;99.90;;;;;;5103144;28;20493;-73
2022/08/11 01:13:36;;;;;;;3.25;1.63;;;17.60;99.90;;;;;;5091509;28;20074;-73
2022/08/11 01:16:48;;;;;;;2.35;0.95;;;17.60;99.90;;;;;;5094154;28;20396;-73
2022/08/11 01:19:26;;;;;;;2.10;1.15;;;17.50;99.90;;;;;;5084311;28;20097;-73
2022/08/11 01:22:04;;;;;;;3.05;1.48;;;17.50;99.90;;;;;;5079925;28;20146;-73
2022/08/11 01:25:03;;;;;;;2.95;1.52;;;17.40;99.90;;;;;;5080157;28;20485;-73
2022/08/11 01:27:52;;;;;;;2.78;1.20;;;17.40;99.90;;;;;;5065057;28;20043;-73
2022/08/11 01:30:38;;;;;;;2.50;1.00;;;17.40;99.90;;;;;;5084698;28;20130;-73
2022/08/11 01:33:22;;;;;;;2.88;1.38;;;17.30;99.90;;;;;;5099742;28;20040;-73
2022/08/11 01:36:12;;;;;;;7.28;1.35;;;17.30;99.90;;;;;;5075518;28;20409;-73
2022/08/11 01:38:56;;;;;;;2.53;1.30;;;17.30;99.90;;;;;;5085538;28;20446;-73
2022/08/11 01:44:38;;;;;;;2.83;1.42;;;17.20;99.90;;;;;;5095771;28;20044;-73
2022/08/11 01:47:52;;;;;;;5.00;1.47;;;17.10;99.90;;;;;;5095473;28;20040;-73
2022/08/11 01:50:29;;;;;;;2.28;1.20;;;17.10;99.90;;;;;;5088170;28;20131;-73
2022/08/11 01:53:37;;;;;;;6.93;1.10;;;17.10;99.90;;;;;;5082519;28;20042;-73
2022/08/11 01:56:09;;;;;;;2.55;1.23;;;17.10;99.90;;;;;;5077529;28;20036;-73
2022/08/11 01:58:49;;;;;;;2.92;1.23;;;17.00;99.90;;;;;;5077209;28;20088;-73
2022/08/11 02:01:36;;;;;;;3.30;1.33;;;17.00;99.90;;;;;;5084084;28;20048;-73
2022/08/11 02:04:29;;;;;;;3.15;1.42;;;17.00;99.90;;;;;;5071978;28;20039;-73
2022/08/11 02:07:32;;;;;;;2.35;1.20;;;17.00;99.90;;;;;;5099148;28;20078;-73
2022/08/11 02:13:18;;;;;;;2.70;1.38;;;17.00;99.90;;;;;;5092091;28;20040;-72
2022/08/11 02:15:53;;;;;;;2.88;1.30;;;17.00;99.90;;;;;;5077541;28;20050;-73
2022/08/11 02:24:40;;;;;;;2.50;1.10;;;16.90;99.90;;;;;;5100253;28;20115;-73
2022/08/11 02:27:31;;;;;;;2.90;1.48;;;16.80;99.90;;;;;;5082459;28;20071;-73
2022/08/11 02:30:08;;;;;;;2.65;1.50;;;16.80;99.90;;;;;;5092859;28;20512;-73
2022/08/11 02:36:05;;;;;;;3.15;1.30;;;16.70;99.90;;;;;;5098237;28;20092;-73
2022/08/11 02:38:49;;;;;;;3.65;1.70;;;16.80;99.90;;;;;;5093744;28;20040;-73
2022/08/11 02:44:32;;;;;;;3.78;1.98;;;16.80;99.90;;;;;;5097845;28;20050;-73
2022/08/11 02:47:13;;;;;;;2.92;1.40;;;16.70;99.90;;;;;;5090181;28;20059;-73
2022/08/11 02:49:54;;;;;;;2.70;1.50;;;16.80;99.90;;;;;;5093547;28;20063;-73
2022/08/11 02:52:38;;;;;;;2.65;1.50;;;16.70;99.90;;;;;;5099960;28;20028;-73
2022/08/11 02:55:31;;;;;;;4.82;1.98;;;16.70;99.90;;;;;;5078104;28;20032;-73
2022/08/11 02:58:08;;;;;;;4.45;1.85;;;16.70;99.90;;;;;;5095617;27;20066;-73
2022/08/11 03:00:52;;;;;;;4.97;2.47;;;16.60;99.90;;;;;;5079613;28;20054;-73
2022/08/11 03:03:28;;;;;;;3.63;2.05;;;16.80;99.90;;;;;;5086692;28;20064;-73
2022/08/11 03:06:03;;;;;;;3.22;1.80;;;16.70;99.90;;;;;;5085822;28;20060;-73
2022/08/11 03:08:38;;;;;;;6.97;2.85;;;16.70;99.90;;;;;;5091666;28;20040;-73
2022/08/11 03:17:40;;;;;;;4.70;2.40;;;16.70;99.90;;;;;;5082370;28;20036;-73
2022/08/11 03:20:44;;;;;;;4.55;2.30;;;16.70;99.90;;;;;;5084074;28;20476;-73
2022/08/11 03:23:33;;;;;;;2.78;1.50;;;16.70;99.90;;;;;;5088637;28;20048;-73
2022/08/11 03:26:37;;;;;;;2.83;1.60;;;16.60;99.90;;;;;;5068454;28;20052;-73
2022/08/11 03:29:16;;;;;;;7.70;2.28;;;16.60;99.90;;;;;;5089553;28;20084;-73
2022/08/11 03:32:24;;;;;;;7.10;2.63;;;16.50;99.90;;;;;;5094606;28;20580;-73
2022/08/11 03:34:51;;;;;;;4.32;1.98;;;16.50;99.90;;;;;;5033936;28;20879;-73
2022/08/11 03:37:49;;;;;;;3.60;1.58;;;16.50;99.90;;;;;;5083551;28;20624;-73
2022/08/11 03:43:39;;;;;;;3.55;1.95;;;16.40;99.90;;;;;;5083762;28;20039;-73
2022/08/11 03:46:11;;;;;;;3.45;1.70;;;16.40;99.90;;;;;;5092343;28;20040;-73
2022/08/11 03:49:00;;;;;;;2.88;1.42;;;16.30;99.90;;;;;;5077682;28;20607;-73
2022/08/11 03:51:44;;;;;;;3.63;1.90;;;16.20;99.90;;;;;;5084941;28;20070;-73
2022/08/11 03:54:47;;;;;;;4.05;2.00;;;16.20;99.90;;;;;;5082552;28;20552;-73
2022/08/11 03:57:22;;;;;;;3.35;1.75;;;16.20;99.90;;;;;;5050125;28;20139;-73
2022/08/11 04:00:42;;;;;;;4.40;1.88;;;16.10;99.90;;;;;;5085409;28;20475;-73
2022/08/11 04:03:29;;;;;;;2.53;1.48;;;16.10;99.90;;;;;;5039974;28;20379;-73
2022/08/11 04:06:23;;;;;;;4.65;1.70;;;16.10;99.90;;;;;;5086458;28;20048;-73
2022/08/11 04:09:26;;;;;;;4.20;1.83;;;16.00;99.90;;;;;;5096096;28;20044;-73
2022/08/11 04:12:54;;;;;;;4.68;2.08;;;16.00;99.90;;;;;;5079189;28;20036;-73
2022/08/11 04:18:42;;;;;;;4.85;2.10;;;16.00;99.90;;;;;;5093670;28;19916;-73
2022/08/11 04:22:00;;;;;;;3.63;1.98;;;15.90;99.90;;;;;;5083228;28;20493;-73
2022/08/11 04:24:52;;;;;;;5.47;2.47;;;15.90;99.90;;;;;;5083494;28;20509;-73
2022/08/11 04:27:55;;;;;;;3.83;2.20;;;15.90;99.90;;;;;;5084919;28;20044;-73
2022/08/11 04:30:40;;;;;;;5.05;2.13;;;15.90;99.90;;;;;;5091463;28;20565;-73
2022/08/11 04:33:40;;;;;;;4.18;2.40;;;15.80;99.90;;;;;;5105254;28;20039;-73
2022/08/11 04:39:48;;;;;;;4.82;2.25;;;15.80;99.90;;;;;;5096473;28;20051;-73
2022/08/11 04:45:35;;;;;;;3.75;1.75;;;15.80;99.90;;;;;;5099728;28;20048;-73
2022/08/11 05:07:20;;;;;;;7.82;2.67;;;16.00;99.90;;;;;;5088497;28;20485;-73
2022/08/11 05:10:17;;;;;;;6.70;3.47;;;16.10;99.90;;;;;;5084064;28;20043;-73
2022/08/11 05:12:52;;;;;;;4.15;2.20;;;16.10;99.90;;;;;;5096829;28;20101;-73
2022/08/11 05:36:26;;;;;;;5.03;2.40;;;16.30;99.90;;;;;;5098590;28;20138;-72
2022/08/11 05:58:39;;;;;;;3.83;1.83;;;17.50;99.90;;;;;;5090000;28;19954;-73
2022/08/11 06:01:06;;;;;;;3.80;1.90;;;17.40;99.90;;;;;;5102750;28;20044;-72
2022/08/11 06:04:16;;;;;;;3.83;1.98;;;17.30;99.90;;;;;;5088158;28;20136;-73
2022/08/11 06:06:24;;;;;;;3.83;2.15;;;17.20;99.90;;;;;;5077500;28;20494;-73
2022/08/11 06:08:55;;;;;;;4.95;2.30;;;17.20;99.90;;;;;;5096208;28;20036;-72
2022/08/11 06:11:23;;;;;;;4.70;1.95;;;17.20;99.90;;;;;;5084050;28;20428;-72
2022/08/11 06:13:49;;;;;;;5.28;2.60;;;17.20;99.90;;;;;;5081873;28;20047;-72
2022/08/11 06:16:22;;;;;;;4.97;2.08;;;17.20;99.90;;;;;;5081874;28;20063;-72
2022/08/11 06:18:48;;;;;;;3.22;2.10;;;17.20;99.90;;;;;;5097228;28;20084;-72
2022/08/11 06:21:15;;;;;;;3.83;1.88;;;17.20;99.90;;;;;;5068373;28;20131;-71
2022/08/11 06:23:42;;;;;;;3.88;2.00;;;17.10;99.90;;;;;;5077172;28;20044;-72
2022/08/11 06:26:12;;;;;;;4.70;2.30;;;17.20;99.90;;;;;;5078990;28;20039;-73
2022/08/11 06:28:43;;;;;;;4.45;1.75;;;17.20;99.90;;;;;;5081576;28;20405;-72
2022/08/11 06:31:17;;;;;;;5.18;2.08;;;17.40;99.90;;;;;;5080850;28;20074;-72
2022/08/11 06:34:21;;;;;;;3.60;1.88;;;18.10;99.90;;;;;;5089796;28;20409;-73
2022/08/11 06:36:56;;;;;;;3.95;1.60;;;19.50;99.90;;;;;;5060522;28;20854;-73
2022/08/11 06:39:33;;;;;;;3.25;1.80;;;20.90;99.90;;;;;;5078258;28;20035;-72
2022/08/11 06:42:07;;;;;;;2.08;1.33;;;21.40;99.10;;;;;;5090473;28;20459;-72
2022/08/11 06:44:39;;;;;;;3.67;1.70;;;21.30;99.60;;;;;;5094817;28;20505;-73
2022/08/11 06:47:13;;;;;;;2.90;1.60;;;21.10;99.90;;;;;;5096476;27;20047;-72
2022/08/11 06:52:37;;;;;;;2.85;1.40;;;20.60;99.90;;;;;;5095035;28;20040;-73
2022/08/11 07:01:09;;;;;;;2.55;1.40;;;20.00;99.90;;;;;;5092784;28;20131;-73
2022/08/11 07:03:39;;;;;;;3.58;1.70;;;20.00;99.90;;;;;;5084290;28;20040;-73
2022/08/11 07:06:31;;;;;;;3.25;1.45;;;19.90;99.90;;;;;;5084031;28;20055;-73
2022/08/11 07:15:42;;;;;;;2.75;1.33;;;19.80;99.90;;;;;;5080632;28;20119;-72
2022/08/11 07:29:54;;;;;;;6.50;1.17;;;19.70;99.90;;;;;;5094347;28;20044;-74
2022/08/11 07:32:31;;;;;;;4.55;1.50;;;19.70;99.90;;;;;;5090135;28;20110;-73
2022/08/11 07:35:20;;;;;;;4.40;1.75;;;19.70;99.90;;;;;;5087604;28;20044;-73
2022/08/11 07:37:49;;;;;;;2.13;1.30;;;19.70;99.90;;;;;;5086206;28;20045;-73
2022/08/11 07:40:21;;;;;;;2.28;1.33;;;19.80;99.90;;;;;;5087502;28;20044;-73
2022/08/11 07:42:47;;;;;;;2.80;1.65;;;19.80;99.90;;;;;;5104630;28;20409;-73
2022/08/11 07:53:29;;;;;;;2.10;0.93;;;19.90;99.40;;;;;;5086725;28;19916;-73
2022/08/11 07:56:00;;;;;;;1.75;0.95;;;20.00;99.90;;;;;;5087332;28;20075;-73
2022/08/11 08:17:59;;;;;;;1.70;0.85;;;20.50;98.00;;;;;;5087050;28;20373;-73
2022/08/11 08:20:30;;;;;;;1.02;0.60;;;20.60;98.10;;;;;;5086790;28;20060;-73
2022/08/11 08:22:58;;;;;;;1.27;0.68;;;20.60;98.00;;;;;;5086616;28;20288;-73
2022/08/11 08:25:25;;;;;;;1.40;0.70;;;20.60;98.10;;;;;;5099562;28;20489;-73
2022/08/11 08:27:53;;;;;;;1.15;0.68;;;20.70;98.20;;;;;;5099360;28;20043;-73
2022/08/11 08:33:03;;;;;;;1.83;0.77;;;20.80;97.40;;;;;;5086695;28;20044;-73
2022/08/11 08:35:30;;;;;;;2.20;0.68;;;20.90;96.90;;;;;;5103832;28;20032;-73
2022/08/11 08:37:58;;;;;;;1.73;0.90;;;20.80;96.50;;;;;;5101071;28;20442;-73
2022/08/11 08:40:24;;;;;;;2.55;0.80;;;21.00;96.70;;;;;;5080316;28;20036;-73
2022/08/11 08:42:56;;;;;;;1.63;1.00;;;21.00;96.70;;;;;;5082032;28;20553;-73
2022/08/11 08:45:24;;;;;;;5.95;1.13;;;21.10;96.30;;;;;;5081844;28;20067;-73
2022/08/11 08:47:57;;;;;;;1.60;0.80;;;21.20;96.00;;;;;;5097661;28;20092;-74
2022/08/11 08:51:32;;;;;;;0.88;0.50;;;21.20;95.90;;;;;;5088466;28;20126;-74
2022/08/11 08:53:12;;;;;;;3.03;0.80;;;21.30;95.80;;;;;;5099258;28;20119;-74
2022/08/11 08:55:40;;;;;;;1.85;0.85;;;21.30;95.50;;;;;;5089099;28;20126;-74
2022/08/11 08:58:06;;;;;;;1.30;0.73;;;21.50;95.00;;;;;;5062086;28;20090;-74
2022/08/11 09:00:42;;;;;;;0.98;0.70;;;21.50;94.80;;;;;;5084713;28;20076;-74
2022/08/11 09:03:09;;;;;;;2.42;0.60;;;21.50;93.50;;;;;;5082897;28;20483;-74
2022/08/11 09:05:35;;;;;;;1.10;0.65;;;21.60;94.10;;;;;;5082921;28;20044;-74
2022/08/11 09:08:01;;;;;;;1.38;0.70;;;21.60;94.10;;;;;;5105273;28;20043;-74
2022/08/11 09:10:29;;;;;;;1.60;0.90;;;21.70;93.80;;;;;;5093437;28;20043;-74
2022/08/11 09:12:58;;;;;;;1.88;0.80;;;21.80;93.80;;;;;;5101363;27;20051;-74
2022/08/11 09:15:24;;;;;;;2.13;0.68;;;21.80;93.80;;;;;;5106799;28;20027;-74
2022/08/11 09:18:02;;;;;;;2.50;0.65;;;21.90;93.40;;;;;;5081765;28;20127;-74
2022/08/11 09:20:32;;;;;;;3.05;0.93;;;22.00;92.80;;;;;;5097368;28;20048;-74
2022/08/11 09:28:31;;;;;;;1.38;0.73;;;22.10;91.80;;;;;;5094320;28;20040;-74
2022/08/11 09:31:00;;;;;;;1.85;0.80;;;22.10;91.60;;;;;;5100825;28;20028;-74
2022/08/11 09:33:29;;;;;;;1.65;0.63;;;22.20;91.60;;;;;;5100308;28;20058;-74
2022/08/11 09:35:56;;;;;;;2.30;0.75;;;22.30;91.10;;;;;;5086057;28;20489;-74
2022/08/11 09:41:11;;;;;;;0.88;0.60;;;22.40;89.40;;;;;;5103486;27;20104;-74
2022/08/11 09:46:28;;;;;;;1.00;0.60;;;22.50;89.10;;;;;;5097190;28;20036;-74
2022/08/11 09:48:57;;;;;;;1.50;0.68;;;22.60;88.20;;;;;;5096485;28;20124;-74
2022/08/11 09:51:25;;;;;;;3.42;0.88;;;22.70;86.50;;;;;;5081152;28;20037;-73
2022/08/11 09:53:52;;;;;;;1.42;0.70;;;22.80;85.20;;;;;;5079694;28;20059;-73
2022/08/11 09:59:06;;;;;;;1.58;0.75;;;22.80;84.00;;;;;;5083479;28;20047;-73
2022/08/11 10:01:40;;;;;;;1.33;0.68;;;22.90;83.70;;;;;;5095574;27;20071;-74
2022/08/11 10:04:21;;;;;;;1.27;0.60;;;23.00;80.60;;;;;;5083512;28;20036;-73
2022/08/11 10:07:04;;;;;;;1.30;0.70;;;23.10;74.50;;;;;;5092440;28;20051;-73
2022/08/11 10:09:55;;;;;;;1.92;0.68;;;23.20;76.80;;;;;;5099090;27;20565;-73
2022/08/11 10:12:46;;;;;;;1.13;0.85;;;23.30;75.00;;;;;;5093046;28;20111;-73
2022/08/11 10:20:59;;;;;;;1.13;0.65;;;23.50;71.30;;;;;;5083902;28;20080;-73
2022/08/11 10:29:01;;;;;;;0.90;0.50;;;23.70;73.40;;;;;;5094960;27;20046;-73
2022/08/11 10:34:14;;;;;;;1.45;0.60;;;23.70;72.60;;;;;;5095537;27;20508;-74
2022/08/11 10:36:47;;;;;;;1.10;0.60;;;23.70;72.40;;;;;;5095839;28;20044;-73
2022/08/11 10:39:20;;;;;;;1.98;0.65;;;23.70;72.00;;;;;;5083001;28;20039;-73
2022/08/11 10:44:46;;;;;;;0.90;0.50;;;23.70;71.90;;;;;;5087695;28;20413;-73
2022/08/11 11:01:03;;;;;;;1.65;0.70;;;24.00;69.50;;;;;;5094930;28;20040;-73
2022/08/11 11:03:30;;;;;;;3.30;0.77;;;24.00;69.00;;;;;;5088364;28;20075;-73
2022/08/11 11:06:16;;;;;;;1.38;0.60;;;23.90;68.60;;;;;;5081236;28;20044;-74
2022/08/11 11:08:51;;;;;;;1.45;0.73;;;23.90;64.00;;;;;;5076433;28;20067;-73
2022/08/11 11:11:19;;;;;;;1.25;0.70;;;24.00;67.70;;;;;;5078303;28;20437;-73
2022/08/11 11:19:22;;;;;;;1.08;0.57;;;24.10;66.20;;;;;;5081296;28;20059;-73
2022/08/11 11:21:52;;;;;;;0.88;0.60;;;24.20;65.80;;;;;;5080526;28;20056;-73
2022/08/11 11:24:44;;;;;;;1.00;0.60;;;24.20;64.80;;;;;;5075443;28;20047;-73
2022/08/11 11:27:35;;;;;;;1.17;0.43;;;24.30;62.10;;;;;;5083419;28;20048;-74
2022/08/11 11:30:05;;;;;;;2.03;0.63;;;24.30;60.50;;;;;;5081126;28;20081;-70
2022/08/11 11:33:00;;;;;;;1.65;0.60;;;24.40;63.70;;;;;;5081764;28;20055;-72
2022/08/11 11:35:57;;;;;;;0.45;0.43;;;24.40;59.70;;;;;;5087830;27;20494;-74
2022/08/11 11:38:23;;;;;;;0.95;0.47;;;24.40;62.40;;;;;;5058448;28;20048;-73
2022/08/11 11:41:23;;;;;;;0.52;0.40;;;24.50;64.70;;;;;;5079562;28;20042;-74
2022/08/11 11:43:35;;;;;;;2.03;0.80;;;24.40;64.40;;;;;;5093691;28;20047;-74
2022/08/11 11:46:03;;;;;;;2.80;0.65;;;24.40;64.10;;;;;;5082178;28;20375;-74
2022/08/11 11:48:30;;;;;;;1.15;0.68;;;24.40;64.40;;;;;;5082290;28;20071;-74
2022/08/11 11:50:56;;;;;;;1.42;0.68;;;24.40;64.30;;;;;;5084317;28;20055;-74
2022/08/11 11:53:21;;;;;;;2.22;0.40;;;24.50;63.90;;;;;;5079285;28;20033;-74
2022/08/11 11:55:47;;;;;;;0.98;0.60;;;24.50;63.50;;;;;;5098893;28;20032;-74
2022/08/11 12:01:18;;;;;;;1.47;0.70;;;24.60;61.70;;;;;;5081795;28;20043;-74
2022/08/11 12:03:46;;;;;;;1.63;0.45;;;24.70;62.00;;;;;;5082293;28;20080;-74
2022/08/11 12:06:13;;;;;;;0.73;0.40;;;24.70;61.80;;;;;;5081660;28;20082;-74
2022/08/11 12:08:39;;;;;;;1.17;0.60;;;24.80;62.00;;;;;;5076117;28;20127;-74
2022/08/11 12:13:56;;;;;;;0.57;0.30;;;24.80;61.50;;;;;;5072915;28;20067;-73
2022/08/11 12:16:23;;;;;;;1.00;0.60;;;24.80;61.30;;;;;;5082061;28;20059;-73
2022/08/11 12:19:00;;;;;;;1.45;0.60;;;24.80;61.50;;;;;;5099396;28;20130;-74
2022/08/11 12:21:27;;;;;;;1.23;0.68;;;24.80;60.80;;;;;;5095063;28;20056;-73
2022/08/11 12:29:18;;;;;;;1.00;0.43;;;24.90;60.20;;;;;;5081737;28;20048;-74
2022/08/11 12:31:45;;;;;;;2.10;0.57;;;25.00;60.10;;;;;;5076816;28;20032;-73
2022/08/11 12:34:13;;;;;;;1.98;0.75;;;25.00;60.10;;;;;;5085037;28;20489;-74
2022/08/11 12:36:53;;;;;;;3.45;0.60;;;25.00;60.00;;;;;;5075042;28;20032;-74
2022/08/11 12:45:26;;;;;;;1.15;0.60;;;25.00;59.60;;;;;;5078551;28;20036;-74
2022/08/11 12:53:28;;;;;;;1.15;0.57;;;25.20;59.20;;;;;;5088761;28;20078;-73
2022/08/11 12:58:44;;;;;;;2.10;0.57;;;25.10;59.20;;;;;;5097644;27;20455;-73
2022/08/11 13:06:41;;;;;;;0.88;0.50;;;25.40;58.40;;;;;;5077227;28;20039;-74
2022/08/11 13:09:08;;;;;;;1.38;0.60;;;25.50;57.70;;;;;;5086289;28;20036;-73
2022/08/11 13:14:21;;;;;;;0.93;0.40;;;25.70;57.90;;;;;;5098522;27;20080;-73
2022/08/11 13:19:33;;;;;;;1.13;0.60;;;25.80;56.70;;;;;;5094377;28;20451;-73
2022/08/11 13:22:01;;;;;;;1.40;0.50;;;25.80;56.60;;;;;;5075646;28;20209;-73
2022/08/11 13:24:27;;;;;;;2.45;0.88;;;25.80;56.10;;;;;;5097219;28;20028;-73
2022/08/11 13:26:53;;;;;;;0.95;0.50;;;25.80;56.00;;;;;;5058814;28;20104;-73
2022/08/11 13:29:25;;;;;;;1.08;0.55;;;25.80;56.20;;;;;;5082105;28;20156;-73
2022/08/11 13:31:53;;;;;;;1.45;0.60;;;25.80;55.80;;;;;;5089045;28;20032;-73
2022/08/11 13:34:20;;;;;;;1.00;0.50;;;25.80;56.00;;;;;;5073777;28;20036;-73
2022/08/11 13:36:48;;;;;;;1.77;0.68;;;25.80;55.40;;;;;;5090431;27;20464;-73
2022/08/11 13:39:15;;;;;;;1.40;0.57;;;25.90;54.60;;;;;;5086517;28;20040;-73
2022/08/11 13:41:42;;;;;;;1.33;0.60;;;26.10;54.50;;;;;;5078156;28;20388;-73
2022/08/11 13:44:11;;;;;;;0.88;0.50;;;26.20;54.20;;;;;;5081420;28;20401;-73
2022/08/11 13:46:38;;;;;;;1.83;0.50;;;26.20;53.90;;;;;;5098262;27;20040;-73
2022/08/11 13:49:07;;;;;;;1.90;0.75;;;26.30;53.80;;;;;;5088320;28;20050;-73
2022/08/11 13:51:36;;;;;;;0.70;0.50;;;26.20;53.40;;;;;;5071805;28;20543;-73
2022/08/11 13:54:16;;;;;;;4.43;0.47;;;26.20;53.40;;;;;;5098141;28;20041;-73
2022/08/11 13:56:45;;;;;;;1.40;0.60;;;26.30;53.30;;;;;;5073167;28;20028;-73
2022/08/11 13:59:13;;;;;;;1.30;0.50;;;26.40;52.90;;;;;;5089058;28;20088;-73
2022/08/11 14:01:47;;;;;;;0.80;0.47;;;26.40;52.80;;;;;;5085230;28;20573;-73
2022/08/11 14:04:26;;;;;;;0.88;0.52;;;26.50;50.00;;;;;;5081322;28;20039;-73
2022/08/11 14:06:53;;;;;;;0.98;0.60;;;26.60;51.60;;;;;;5066946;28;20047;-73
2022/08/11 14:09:26;;;;;;;0.82;0.52;;;26.50;52.40;;;;;;5087336;28;20400;-73
2022/08/11 14:14:45;;;;;;;0.50;0.30;;;26.50;51.30;;;;;;5086304;28;20036;-73
2022/08/11 14:17:13;;;;;;;2.13;0.65;;;26.40;52.20;;;;;;5071931;28;20035;-73
2022/08/11 14:19:41;;;;;;;0.98;0.43;;;26.40;51.70;;;;;;5081756;28;20043;-73
2022/08/11 14:22:07;;;;;;;0.73;0.47;;;26.40;51.50;;;;;;5078947;28;20048;-73
2022/08/11 14:24:42;;;;;;;0.50;0.30;;;26.40;51.40;;;;;;5076407;28;20048;-73
2022/08/11 14:27:12;;;;;;;1.17;0.70;;;26.40;51.40;;;;;;5080766;28;20054;-73
2022/08/11 14:29:40;;;;;;;0.85;0.60;;;26.40;51.50;;;;;;5074112;28;20059;-73
2022/08/11 14:32:09;;;;;;;0.65;0.30;;;26.50;51.10;;;;;;5085835;28;20036;-73
2022/08/11 14:34:40;;;;;;;0.77;0.40;;;26.50;50.80;;;;;;5078380;28;20420;-73
2022/08/11 14:37:12;;;;;;;0.68;0.40;;;26.50;50.50;;;;;;5085456;28;20449;-73
2022/08/11 14:39:47;;;;;;;1.27;0.60;;;26.70;50.30;;;;;;5083345;28;20043;-73
2022/08/11 14:47:56;;;;;;;1.23;0.50;;;26.60;50.50;;;;;;5083093;28;20134;-73
2022/08/11 14:50:25;;;;;;;0.95;0.50;;;26.60;50.20;;;;;;5085170;28;20047;-73
2022/08/11 14:52:55;;;;;;;0.30;0.30;;;26.50;50.10;;;;;;5086515;28;20035;-73
2022/08/11 14:58:10;;;;;;;1.00;0.50;;;26.50;50.20;;;;;;5095718;28;20129;-73
2022/08/11 15:00:37;;;;;;;1.02;0.50;;;26.50;50.20;;;;;;5085724;28;20054;-73
2022/08/11 15:03:10;;;;;;;0.98;0.47;;;26.60;50.30;;;;;;5082001;28;20243;-73
2022/08/11 15:05:46;;;;;;;0.52;0.30;;;26.60;50.00;;;;;;5076603;28;20047;-74
2022/08/11 15:08:13;;;;;;;0.95;0.50;;;26.60;49.20;;;;;;5077391;28;20039;-73
2022/08/11 15:10:39;;;;;;;0.85;0.50;;;26.60;50.30;;;;;;5090651;28;20039;-73
2022/08/11 15:13:05;;;;;;;0.73;0.40;;;26.50;50.50;;;;;;5076594;28;20039;-73
2022/08/11 15:18:19;;;;;;;2.40;0.60;;;26.50;50.60;;;;;;5097106;28;20074;-73
2022/08/11 15:37:48;;;;;;;1.23;0.60;;;26.70;49.50;;;;;;5077045;28;20486;-73
2022/08/11 15:46:29;;;;;;;1.02;0.50;;;26.70;48.00;;;;;;5090360;28;20039;-69
2022/08/11 15:49:24;;;;;;;0.70;0.40;;;26.80;49.40;;;;;;5080178;28;20090;-72
2022/08/11 15:52:08;;;;;;;2.40;0.50;;;26.80;49.80;;;;;;5067901;28;20058;-73
2022/08/11 15:54:38;;;;;;;2.05;0.52;;;26.80;47.60;;;;;;5076837;28;20079;-73
2022/08/11 15:57:05;;;;;;;0.65;0.50;;;26.80;49.80;;;;;;5070751;28;20063;-73
2022/08/11 16:05:05;;;;;;;0.50;0.30;;;26.80;49.60;;;;;;5084031;28;20605;-73
2022/08/11 16:07:34;;;;;;;0.75;0.55;;;26.80;49.30;;;;;;5088403;28;20075;-73
2022/08/11 16:10:09;;;;;;;0.88;0.50;;;26.80;50.00;;;;;;5082709;28;20039;-73
2022/08/11 16:18:40;;;;;;;0.98;0.60;;;26.80;50.40;;;;;;5084325;28;20611;-73
2022/08/11 16:21:18;;;;;;;0.80;0.43;;;26.80;50.80;;;;;;5085887;28;20135;-73
2022/08/11 16:23:47;;;;;;;1.48;0.50;;;26.80;51.00;;;;;;5083732;28;20489;-73
2022/08/11 16:26:18;;;;;;;0.60;0.38;;;26.80;51.00;;;;;;5089501;28;20027;-73
2022/08/11 16:28:45;;;;;;;0.82;0.43;;;26.70;51.10;;;;;;5077426;28;20048;-73
2022/08/11 16:31:12;;;;;;;2.03;0.70;;;26.70;51.40;;;;;;5062546;28;20474;-73
2022/08/11 16:33:40;;;;;;;1.23;0.73;;;26.70;51.40;;;;;;5085522;28;20767;-73
2022/08/11 16:38:57;;;;;;;1.23;0.57;;;26.60;51.20;;;;;;5099033;27;20040;-73
2022/08/11 16:49:27;;;;;;;1.30;0.80;;;26.50;51.30;;;;;;5098092;28;20566;-76
2022/08/11 16:51:53;;;;;;;1.02;0.50;;;26.50;51.40;;;;;;5089517;28;20071;-73
2022/08/11 16:54:19;;;;;;;1.73;0.65;;;26.50;51.60;;;;;;5086551;28;20426;-73
2022/08/11 16:56:49;;;;;;;1.73;0.73;;;26.50;51.60;;;;;;5085831;28;20056;-73
2022/08/11 16:59:26;;;;;;;0.77;0.32;;;26.50;51.80;;;;;;5091764;27;20044;-73
2022/08/11 17:01:54;;;;;;;1.30;0.60;;;26.40;51.50;;;;;;5075412;28;20032;-73
2022/08/11 17:18:38;;;;;;;1.48;0.90;;;26.20;52.60;;;;;;5098885;28;20128;-73
2022/08/11 17:21:02;;;;;;;3.00;0.80;;;26.20;52.70;;;;;;5078470;28;20048;-73
2022/08/11 17:26:58;;;;;;;1.48;0.77;;;26.10;53.00;;;;;;5092640;28;20123;-74
2022/08/11 17:29:29;;;;;;;2.33;0.70;;;26.10;52.70;;;;;;5077686;28;20032;-73
2022/08/11 17:37:31;;;;;;;1.30;0.68;;;26.00;53.80;;;;;;5084599;28;19924;-73
2022/08/11 17:39:59;;;;;;;1.15;0.50;;;26.00;53.80;;;;;;5093404;27;20047;-73
2022/08/11 17:50:47;;;;;;;0.85;0.50;;;25.80;55.00;;;;;;5077157;28;20052;-73
2022/08/11 18:01:55;;;;;;;1.05;0.68;;;25.60;56.50;;;;;;5067810;28;20039;-73
2022/08/11 18:04:22;;;;;;;0.75;0.60;;;25.60;56.90;;;;;;5083100;28;20040;-74
2022/08/11 18:06:51;;;;;;;1.00;0.60;;;25.60;57.30;;;;;;5083134;28;20032;-74
